Time;durP1;ratioP1;P1;durP2;ratioP2;P2;SDS_P1;SDS_P2;PMS_P1;PMS_P2;Temp;Humidity;BMP_temperature;BMP_pressure;BME280_temperature;BME280_humidity;BME280_pressure;Samples;Min_cycle;Max_cycle;Signal;HPM_P1;HPM_P2
2021/01/12 00:01:05;;;;;;;0.57;0.52;;;20.50;48.50;;;;;;5205181;28;20076;-78
2021/01/12 00:03:35;;;;;;;0.82;0.57;;;20.60;48.60;;;;;;5206983;28;20034;-78
2021/01/12 00:06:06;;;;;;;1.52;0.60;;;20.50;48.50;;;;;;5206009;28;20036;-77
2021/01/12 00:08:37;;;;;;;1.00;0.60;;;20.60;48.50;;;;;;5188783;28;20103;-77
2021/01/12 00:11:07;;;;;;;0.38;0.38;;;20.50;48.50;;;;;;5189152;28;20405;-77
2021/01/12 00:13:38;;;;;;;0.68;0.50;;;20.50;48.50;;;;;;5188815;28;20021;-78
2021/01/12 00:16:08;;;;;;;1.20;0.52;;;20.50;48.50;;;;;;5189002;28;20045;-78
2021/01/12 00:18:39;;;;;;;0.60;0.40;;;20.60;48.70;;;;;;5171764;28;20037;-78
2021/01/12 00:21:09;;;;;;;1.42;0.60;;;20.50;48.60;;;;;;5189048;28;20572;-78
2021/01/12 00:23:40;;;;;;;1.38;0.52;;;20.60;48.80;;;;;;5172149;28;20034;-78
2021/01/12 00:26:10;;;;;;;2.25;0.52;;;20.50;48.80;;;;;;5206224;28;20745;-78
2021/01/12 00:28:41;;;;;;;2.85;0.47;;;20.50;48.90;;;;;;5204983;28;20490;-78
2021/01/12 00:31:11;;;;;;;0.80;0.50;;;20.60;48.90;;;;;;5171779;28;20033;-78
2021/01/12 00:33:42;;;;;;;2.17;0.40;;;20.60;48.90;;;;;;5204848;28;20060;-77
2021/01/12 00:36:12;;;;;;;2.47;0.73;;;20.60;49.00;;;;;;5173686;28;20053;-78
2021/01/12 00:38:43;;;;;;;5.60;0.50;;;20.60;49.10;;;;;;5189774;28;20053;-78
2021/01/12 00:41:13;;;;;;;0.43;0.40;;;20.60;49.00;;;;;;5174019;28;20155;-77
2021/01/12 00:43:44;;;;;;;2.90;0.70;;;20.60;48.90;;;;;;5173306;28;20038;-78
2021/01/12 00:46:14;;;;;;;0.70;0.50;;;20.60;48.90;;;;;;5189499;28;20103;-78
2021/01/12 00:48:45;;;;;;;1.85;0.50;;;20.60;49.00;;;;;;5188341;28;20065;-78
2021/01/12 00:51:15;;;;;;;0.70;0.40;;;20.50;49.00;;;;;;5173820;28;20026;-78
2021/01/12 00:53:46;;;;;;;1.40;0.60;;;20.50;49.00;;;;;;5189497;28;20036;-78
2021/01/12 00:56:16;;;;;;;2.22;0.50;;;20.60;49.20;;;;;;5206730;28;20030;-77
2021/01/12 00:58:47;;;;;;;0.50;0.43;;;20.60;49.10;;;;;;5189431;28;20038;-77
2021/01/12 01:01:17;;;;;;;0.43;0.43;;;20.60;49.50;;;;;;5189211;28;20052;-78
2021/01/12 01:03:48;;;;;;;0.75;0.60;;;20.60;49.30;;;;;;5189354;28;20498;-78
2021/01/12 01:06:19;;;;;;;2.38;0.70;;;20.60;49.20;;;;;;5206134;28;20033;-77
2021/01/12 01:08:50;;;;;;;0.73;0.50;;;20.60;49.30;;;;;;5188694;28;20045;-77
2021/01/12 01:11:20;;;;;;;0.85;0.50;;;20.50;49.40;;;;;;5189778;28;20567;-77
2021/01/12 01:13:51;;;;;;;0.77;0.50;;;20.60;49.50;;;;;;5188884;28;20375;-78
2021/01/12 01:16:30;;;;;;;0.52;0.50;;;20.60;49.30;;;;;;5188664;28;20044;-77
2021/01/12 01:19:00;;;;;;;0.40;0.40;;;20.60;49.40;;;;;;5171526;28;20037;-77
2021/01/12 01:21:31;;;;;;;2.05;0.50;;;20.60;49.50;;;;;;5189356;28;20041;-78
2021/01/12 01:24:01;;;;;;;3.75;0.63;;;20.60;49.60;;;;;;5188150;28;20041;-80
2021/01/12 01:26:32;;;;;;;2.33;0.50;;;20.70;50.00;;;;;;5188410;28;20106;-78
2021/01/12 01:29:03;;;;;;;1.38;0.70;;;20.60;49.80;;;;;;5171395;28;20656;-77
2021/01/12 01:31:34;;;;;;;1.73;0.60;;;20.60;48.90;;;;;;5188234;28;20041;-77
2021/01/12 01:34:05;;;;;;;4.15;0.60;;;20.60;49.50;;;;;;5171850;28;20491;-77
2021/01/12 01:36:35;;;;;;;12.05;0.85;;;20.60;49.40;;;;;;5205245;28;20151;-78
2021/01/12 01:39:06;;;;;;;3.05;0.50;;;20.60;49.60;;;;;;5169998;28;20438;-77
2021/01/12 01:41:36;;;;;;;1.85;0.60;;;20.70;49.60;;;;;;5164105;28;20030;-77
2021/01/12 01:44:07;;;;;;;1.67;0.60;;;20.60;49.60;;;;;;5154635;28;20502;-78
2021/01/12 01:46:38;;;;;;;1.63;0.60;;;20.70;49.70;;;;;;5167239;28;20084;-78
2021/01/12 01:49:08;;;;;;;2.50;0.50;;;20.60;49.60;;;;;;5165200;28;20029;-78
2021/01/12 01:51:39;;;;;;;2.95;0.50;;;20.60;49.70;;;;;;5171319;28;20616;-77
2021/01/12 01:54:11;;;;;;;4.43;0.60;;;20.60;49.80;;;;;;5187827;28;20044;-77
2021/01/12 01:56:41;;;;;;;1.75;0.50;;;20.60;49.60;;;;;;5171592;28;20029;-77
2021/01/12 01:59:12;;;;;;;4.10;0.50;;;20.60;49.60;;;;;;5187256;28;20033;-77
2021/01/12 02:01:43;;;;;;;6.25;0.50;;;20.60;49.80;;;;;;5187518;28;20084;-77
2021/01/12 02:04:21;;;;;;;3.47;0.68;;;20.60;49.90;;;;;;5187250;28;20025;-78
2021/01/12 02:06:52;;;;;;;2.42;0.47;;;20.60;49.90;;;;;;5187731;28;20478;-79
2021/01/12 02:09:24;;;;;;;0.85;0.50;;;20.60;49.90;;;;;;5188046;28;20055;-78
2021/01/12 02:11:56;;;;;;;1.00;0.70;;;20.60;49.80;;;;;;5203751;28;20033;-76
2021/01/12 02:14:27;;;;;;;1.02;0.60;;;20.60;50.00;;;;;;5170894;28;20047;-78
2021/01/12 02:16:57;;;;;;;1.50;0.40;;;20.60;49.90;;;;;;5185684;28;20045;-78
2021/01/12 02:19:28;;;;;;;1.77;0.50;;;20.60;50.10;;;;;;5170091;28;20383;-77
2021/01/12 02:22:04;;;;;;;0.60;0.40;;;20.60;50.00;;;;;;5186460;28;20021;-77
2021/01/12 02:24:34;;;;;;;0.60;0.40;;;20.60;50.00;;;;;;5187031;28;20446;-77
2021/01/12 02:27:05;;;;;;;1.77;0.35;;;20.60;50.10;;;;;;5186202;28;20049;-77
2021/01/12 02:29:36;;;;;;;0.90;0.40;;;20.60;50.10;;;;;;5186934;28;20030;-77
2021/01/12 02:32:06;;;;;;;1.27;0.52;;;20.50;50.00;;;;;;5201973;28;20049;-77
2021/01/12 02:34:37;;;;;;;0.73;0.43;;;20.60;50.10;;;;;;5187045;28;20088;-78
2021/01/12 02:37:07;;;;;;;2.10;0.50;;;20.50;50.00;;;;;;5130081;28;20026;-77
2021/01/12 02:39:38;;;;;;;0.38;0.30;;;20.50;50.10;;;;;;5148705;28;20054;-78
2021/01/12 02:42:15;;;;;;;0.47;0.40;;;20.60;50.30;;;;;;5185974;28;20108;-77
2021/01/12 02:44:46;;;;;;;1.60;0.30;;;20.60;50.10;;;;;;5170946;28;20013;-77
2021/01/12 02:47:17;;;;;;;0.30;0.30;;;20.50;50.10;;;;;;5169531;28;20022;-77
2021/01/12 02:49:47;;;;;;;1.02;0.35;;;20.50;50.20;;;;;;5186308;28;20083;-77
2021/01/12 02:52:18;;;;;;;0.57;0.38;;;20.50;50.30;;;;;;5185896;28;20087;-77
2021/01/12 02:54:48;;;;;;;0.45;0.30;;;20.50;50.30;;;;;;5188104;28;20034;-77
2021/01/12 02:57:19;;;;;;;1.20;0.43;;;20.50;50.10;;;;;;5190200;28;20556;-77
2021/01/12 02:59:49;;;;;;;0.70;0.30;;;20.50;50.30;;;;;;5207197;28;20034;-77
2021/01/12 03:02:20;;;;;;;0.20;0.20;;;20.50;50.20;;;;;;5189387;28;20498;-78
2021/01/12 03:04:50;;;;;;;0.95;0.43;;;20.50;50.50;;;;;;5206559;28;20026;-78
2021/01/12 03:07:21;;;;;;;0.40;0.30;;;20.50;50.30;;;;;;5190050;28;20375;-78
2021/01/12 03:09:51;;;;;;;0.47;0.30;;;20.50;50.40;;;;;;5173675;28;20033;-78
2021/01/12 03:12:22;;;;;;;0.68;0.30;;;20.50;50.40;;;;;;5173700;28;20034;-78
2021/01/12 03:14:52;;;;;;;0.45;0.38;;;20.50;50.40;;;;;;5173944;28;20036;-78
2021/01/12 03:17:23;;;;;;;0.28;0.28;;;20.50;50.40;;;;;;5173140;28;20152;-77
2021/01/12 03:19:53;;;;;;;2.42;0.30;;;20.60;50.40;;;;;;5173363;28;20026;-78
2021/01/12 03:22:24;;;;;;;0.30;0.25;;;20.60;50.60;;;;;;5189919;28;20040;-78
2021/01/12 03:24:54;;;;;;;0.82;0.22;;;20.50;50.60;;;;;;5173782;28;20034;-77
2021/01/12 03:27:25;;;;;;;0.35;0.30;;;20.50;50.50;;;;;;5189652;28;20110;-79
2021/01/12 03:29:55;;;;;;;1.00;0.20;;;20.60;50.70;;;;;;5173589;28;20036;-78
2021/01/12 03:32:26;;;;;;;1.17;0.20;;;20.60;50.80;;;;;;5172493;28;20045;-77
2021/01/12 03:34:56;;;;;;;1.55;0.40;;;20.60;50.90;;;;;;5190423;28;20034;-77
2021/01/12 03:37:27;;;;;;;0.75;0.38;;;20.60;50.80;;;;;;5189524;28;20034;-77
2021/01/12 03:39:57;;;;;;;1.17;0.25;;;20.60;51.00;;;;;;5173312;28;20025;-78
2021/01/12 03:42:28;;;;;;;0.22;0.22;;;20.60;51.10;;;;;;5173011;28;20040;-77
2021/01/12 03:44:58;;;;;;;1.52;0.20;;;20.60;51.00;;;;;;5206634;28;20074;-78
2021/01/12 03:47:29;;;;;;;1.38;0.25;;;20.60;51.00;;;;;;5188750;28;20538;-78
2021/01/12 03:49:59;;;;;;;0.22;0.22;;;20.60;51.10;;;;;;5205911;28;20084;-78
2021/01/12 03:52:30;;;;;;;0.70;0.30;;;20.60;51.10;;;;;;5172452;28;20387;-78
2021/01/12 03:55:01;;;;;;;0.85;0.22;;;20.60;51.10;;;;;;5206380;28;20113;-78
2021/01/12 03:57:31;;;;;;;0.77;0.30;;;20.60;51.10;;;;;;5190621;28;20049;-77
2021/01/12 04:00:04;;;;;;;0.32;0.20;;;20.60;51.10;;;;;;5189830;28;20029;-77
2021/01/12 04:02:34;;;;;;;0.20;0.20;;;20.60;51.20;;;;;;5189670;28;20037;-77
2021/01/12 04:05:06;;;;;;;0.25;0.25;;;20.60;51.20;;;;;;5207311;28;20393;-79
2021/01/12 04:07:37;;;;;;;0.32;0.20;;;20.60;51.20;;;;;;5173519;28;20112;-77
2021/01/12 04:10:08;;;;;;;0.20;0.20;;;20.60;51.20;;;;;;5174387;28;20029;-78
2021/01/12 04:12:39;;;;;;;0.47;0.30;;;20.60;51.40;;;;;;5189615;28;20477;-77
2021/01/12 04:15:10;;;;;;;0.20;0.20;;;20.60;51.30;;;;;;5173001;28;20071;-78
2021/01/12 04:17:40;;;;;;;0.30;0.30;;;20.60;51.30;;;;;;5205349;28;20045;-77
2021/01/12 04:20:11;;;;;;;0.65;0.20;;;20.60;51.40;;;;;;5188685;28;20494;-77
2021/01/12 04:22:42;;;;;;;0.15;0.10;;;20.60;51.40;;;;;;5205124;28;20079;-77
2021/01/12 04:25:13;;;;;;;0.20;0.20;;;20.60;51.40;;;;;;5189115;28;20564;-77
2021/01/12 04:27:43;;;;;;;1.65;0.20;;;20.60;51.40;;;;;;5188511;28;20034;-78
2021/01/12 04:30:14;;;;;;;0.45;0.20;;;20.60;51.40;;;;;;5190424;28;20057;-78
2021/01/12 04:32:44;;;;;;;0.32;0.20;;;20.60;51.50;;;;;;5207107;28;20106;-78
2021/01/12 04:35:15;;;;;;;0.20;0.20;;;20.60;51.60;;;;;;5175270;28;20525;-78
2021/01/12 04:37:45;;;;;;;0.20;0.20;;;20.60;51.40;;;;;;5190348;28;20037;-79
2021/01/12 04:40:16;;;;;;;1.05;0.20;;;20.60;51.40;;;;;;5189932;28;20106;-77
2021/01/12 04:42:46;;;;;;;1.65;0.20;;;20.60;51.40;;;;;;5189611;28;20053;-78
2021/01/12 04:45:17;;;;;;;0.13;0.13;;;20.60;51.50;;;;;;5189734;28;20021;-77
2021/01/12 04:47:47;;;;;;;0.10;0.10;;;20.60;51.50;;;;;;5205707;28;20079;-79
2021/01/12 04:50:18;;;;;;;0.25;0.20;;;20.60;51.50;;;;;;5205414;28;20052;-78
2021/01/12 04:52:50;;;;;;;0.10;0.10;;;20.60;51.70;;;;;;5171976;28;20046;-78
2021/01/12 04:55:20;;;;;;;0.15;0.15;;;20.60;51.70;;;;;;5189049;28;20401;-78
2021/01/12 04:57:51;;;;;;;0.20;0.20;;;20.60;51.50;;;;;;5186024;28;20044;-77
2021/01/12 05:00:25;;;;;;;0.20;0.20;;;20.60;51.60;;;;;;5167796;28;20057;-78
2021/01/12 05:03:04;;;;;;;1.75;0.20;;;20.60;51.60;;;;;;5186781;28;20033;-77
2021/01/12 05:05:38;;;;;;;0.50;0.20;;;20.60;51.70;;;;;;5205064;28;20093;-78
2021/01/12 05:08:10;;;;;;;0.70;0.20;;;20.60;51.50;;;;;;5188238;28;20425;-76
2021/01/12 05:10:41;;;;;;;0.22;0.20;;;20.60;51.50;;;;;;5172180;28;20076;-77
2021/01/12 05:13:12;;;;;;;0.63;0.20;;;20.60;51.60;;;;;;5188112;28;20033;-77
2021/01/12 05:15:46;;;;;;;0.35;0.10;;;20.60;51.70;;;;;;5187920;28;20045;-77
2021/01/12 05:18:17;;;;;;;0.10;0.10;;;20.60;51.50;;;;;;5171685;28;20034;-77
2021/01/12 05:20:49;;;;;;;0.13;0.13;;;20.60;51.60;;;;;;5188464;28;20030;-77
2021/01/12 05:23:29;;;;;;;0.20;0.20;;;20.60;51.60;;;;;;5171872;28;20041;-77
2021/01/12 05:26:00;;;;;;;1.70;0.20;;;20.50;51.80;;;;;;5204640;28;20394;-78
2021/01/12 05:28:31;;;;;;;0.20;0.20;;;20.50;51.70;;;;;;5187804;28;20029;-77
2021/01/12 05:31:03;;;;;;;2.15;0.40;;;20.60;51.60;;;;;;5187424;28;20034;-76
2021/01/12 05:33:33;;;;;;;1.35;0.20;;;20.60;51.70;;;;;;5171444;28;20486;-78
2021/01/12 05:36:04;;;;;;;1.33;0.10;;;20.60;51.70;;;;;;5204942;28;20079;-77
2021/01/12 05:38:35;;;;;;;1.08;0.20;;;20.60;51.80;;;;;;5187075;28;20407;-77
2021/01/12 05:41:05;;;;;;;1.30;0.20;;;20.60;51.80;;;;;;5203874;28;20437;-78
2021/01/12 05:43:41;;;;;;;3.35;0.30;;;20.60;51.70;;;;;;5203339;28;20033;-78
2021/01/12 05:46:15;;;;;;;1.33;0.30;;;20.70;50.80;;;;;;5170253;28;20029;-77
2021/01/12 05:48:45;;;;;;;0.63;0.30;;;20.80;50.70;;;;;;5186452;28;20481;-77
2021/01/12 05:51:16;;;;;;;2.05;0.40;;;20.80;50.40;;;;;;5187079;28;20095;-78
2021/01/12 05:53:46;;;;;;;1.83;0.50;;;20.90;50.20;;;;;;5170610;28;20029;-77
2021/01/12 05:56:24;;;;;;;2.10;0.30;;;20.90;50.10;;;;;;5203798;28;20116;-78
2021/01/12 05:58:55;;;;;;;0.65;0.20;;;20.90;50.10;;;;;;5186841;28;20034;-77
2021/01/12 06:01:44;;;;;;;2.45;0.30;;;20.90;49.90;;;;;;5169888;28;20041;-76
2021/01/12 06:04:14;;;;;;;3.20;0.43;;;20.90;49.90;;;;;;5202431;28;20032;-76
2021/01/12 06:06:46;;;;;;;1.73;0.40;;;20.90;50.60;;;;;;5170999;28;20406;-77
2021/01/12 06:09:18;;;;;;;1.85;0.30;;;20.90;50.70;;;;;;5186296;28;20029;-77
2021/01/12 06:11:52;;;;;;;7.72;0.40;;;20.90;50.60;;;;;;5186713;28;20048;-77
2021/01/12 06:14:27;;;;;;;3.33;0.40;;;20.90;50.10;;;;;;5186339;28;20083;-76
2021/01/12 06:16:58;;;;;;;6.15;0.60;;;20.90;50.80;;;;;;5186529;28;20077;-78
2021/01/12 06:19:29;;;;;;;4.45;0.50;;;20.90;51.00;;;;;;5189034;28;20498;-78
2021/01/12 06:22:23;;;;;;;6.32;0.40;;;20.90;51.20;;;;;;5202270;28;20036;-78
2021/01/12 06:25:06;;;;;;;3.95;0.45;;;20.80;51.30;;;;;;5203204;28;20018;-78
2021/01/12 06:27:37;;;;;;;4.20;0.52;;;20.80;51.40;;;;;;5169198;28;20509;-78
2021/01/12 06:30:10;;;;;;;1.50;0.70;;;20.80;51.40;;;;;;5184566;28;20061;-78
2021/01/12 06:32:40;;;;;;;0.70;0.20;;;20.80;51.60;;;;;;5170598;28;20042;-78
2021/01/12 06:35:11;;;;;;;0.52;0.20;;;20.80;51.60;;;;;;5187353;28;20088;-79
2021/01/12 06:37:43;;;;;;;0.52;0.30;;;20.80;51.60;;;;;;5187038;28;20049;-78
2021/01/12 06:40:13;;;;;;;1.80;0.30;;;20.70;51.50;;;;;;5207689;28;20105;-77
2021/01/12 06:42:44;;;;;;;0.82;0.30;;;20.70;51.60;;;;;;5190718;28;20159;-77
2021/01/12 06:45:14;;;;;;;2.03;0.30;;;20.70;51.60;;;;;;5177630;28;20026;-78
2021/01/12 06:47:45;;;;;;;0.32;0.17;;;20.70;51.60;;;;;;5185333;28;20561;-77
2021/01/12 06:50:16;;;;;;;3.15;0.50;;;20.70;51.60;;;;;;5186297;28;20112;-77
2021/01/12 06:52:48;;;;;;;0.38;0.22;;;20.70;51.60;;;;;;5186833;28;20049;-77
2021/01/12 06:55:20;;;;;;;0.70;0.28;;;20.70;51.50;;;;;;5182638;28;20121;-78
2021/01/12 06:57:51;;;;;;;1.85;0.30;;;20.70;51.50;;;;;;5190494;28;20060;-78
2021/01/12 07:00:22;;;;;;;0.20;0.20;;;20.70;51.70;;;;;;5186042;28;20026;-79
2021/01/12 07:02:59;;;;;;;0.68;0.25;;;20.70;51.70;;;;;;5173934;28;20025;-77
2021/01/12 07:05:39;;;;;;;4.45;0.40;;;20.70;51.80;;;;;;5184403;28;20025;-77
2021/01/12 07:08:10;;;;;;;3.83;0.30;;;20.80;52.00;;;;;;5176580;28;20551;-77
2021/01/12 07:10:47;;;;;;;4.93;0.90;;;20.70;51.60;;;;;;5174823;28;20068;-77
2021/01/12 07:13:18;;;;;;;0.75;0.30;;;20.70;51.40;;;;;;5190418;28;20064;-78
2021/01/12 07:15:49;;;;;;;2.53;0.32;;;20.60;50.50;;;;;;5170454;28;20102;-77
2021/01/12 07:18:23;;;;;;;4.65;0.38;;;20.60;50.70;;;;;;5150402;28;20042;-77
2021/01/12 07:20:53;;;;;;;0.82;0.43;;;20.60;50.60;;;;;;5169963;28;20022;-78
2021/01/12 07:23:24;;;;;;;3.20;0.30;;;20.60;50.20;;;;;;5186209;28;20049;-77
2021/01/12 07:26:03;;;;;;;0.75;0.30;;;20.60;49.80;;;;;;5186368;28;20033;-78
2021/01/12 07:28:33;;;;;;;1.25;0.40;;;20.60;49.80;;;;;;5169209;28;20634;-78
2021/01/12 07:31:04;;;;;;;0.63;0.30;;;20.60;49.30;;;;;;5168959;28;20052;-78
2021/01/12 07:33:34;;;;;;;1.80;0.30;;;20.60;49.60;;;;;;5169744;28;20045;-79
2021/01/12 07:36:05;;;;;;;0.30;0.17;;;20.60;49.40;;;;;;5169921;28;20690;-78
2021/01/12 07:38:35;;;;;;;0.73;0.38;;;20.60;49.40;;;;;;5185228;28;20120;-79
2021/01/12 07:41:06;;;;;;;0.73;0.30;;;20.60;49.30;;;;;;5191033;28;20700;-78
2021/01/12 07:43:36;;;;;;;0.93;0.43;;;20.60;49.40;;;;;;5189058;28;20446;-78
2021/01/12 07:46:07;;;;;;;0.52;0.20;;;20.60;49.20;;;;;;5184593;28;20113;-78
2021/01/12 07:48:37;;;;;;;1.85;0.30;;;20.60;49.30;;;;;;5184969;28;20502;-79
2021/01/12 07:51:08;;;;;;;0.68;0.20;;;20.60;49.40;;;;;;5160425;28;20034;-80
2021/01/12 07:53:41;;;;;;;1.00;0.30;;;20.60;49.10;;;;;;5167517;28;20037;-77
2021/01/12 07:56:12;;;;;;;2.40;0.28;;;20.60;48.70;;;;;;5193643;28;20034;-79
2021/01/12 07:58:43;;;;;;;2.00;0.32;;;20.70;49.30;;;;;;5171532;28;20425;-79
2021/01/12 08:01:13;;;;;;;1.40;0.30;;;20.70;48.60;;;;;;5148347;28;20058;-76
2021/01/12 08:03:46;;;;;;;1.92;0.30;;;20.70;48.60;;;;;;5167771;28;20050;-82
2021/01/12 08:06:16;;;;;;;4.35;0.40;;;20.70;48.50;;;;;;5140483;28;20125;-79
2021/01/12 08:08:56;;;;;;;1.95;0.40;;;20.60;48.10;;;;;;5166297;28;20558;-77
2021/01/12 08:11:26;;;;;;;1.20;0.40;;;20.60;48.10;;;;;;5182372;28;20022;-79
2021/01/12 08:14:05;;;;;;;0.82;0.32;;;20.60;48.30;;;;;;5177100;28;20162;-82
2021/01/12 08:16:35;;;;;;;0.38;0.20;;;20.60;48.30;;;;;;5150278;28;20114;-80
2021/01/12 08:19:06;;;;;;;1.58;0.40;;;20.50;48.20;;;;;;5178824;28;20560;-81
2021/01/12 08:21:40;;;;;;;2.92;0.75;;;20.50;48.20;;;;;;5170889;28;20030;-81
2021/01/12 08:24:11;;;;;;;0.82;0.40;;;20.50;47.70;;;;;;5180196;28;20038;-80
2021/01/12 08:26:45;;;;;;;2.92;0.55;;;20.50;47.40;;;;;;5164084;28;20037;-80
2021/01/12 08:29:23;;;;;;;0.85;0.45;;;20.60;47.40;;;;;;5188035;28;20528;-80
2021/01/12 08:31:58;;;;;;;1.23;0.50;;;20.60;47.30;;;;;;5164519;28;20065;-81
2021/01/12 08:34:29;;;;;;;1.50;0.50;;;20.50;47.30;;;;;;5189157;28;20022;-80
2021/01/12 08:37:02;;;;;;;1.45;0.50;;;20.60;47.40;;;;;;5156059;28;20088;-80
2021/01/12 08:39:33;;;;;;;3.47;0.50;;;20.50;47.40;;;;;;5155437;28;20030;-78
2021/01/12 08:42:06;;;;;;;2.55;0.52;;;20.50;47.00;;;;;;5154179;28;20026;-80
2021/01/12 08:44:39;;;;;;;6.07;0.75;;;20.70;47.70;;;;;;5162162;28;20051;-80
2021/01/12 08:47:10;;;;;;;6.47;0.80;;;20.70;47.80;;;;;;5171313;28;20057;-79
2021/01/12 08:49:40;;;;;;;4.18;0.60;;;20.80;47.50;;;;;;5183279;28;20041;-78
2021/01/12 08:52:11;;;;;;;2.53;0.60;;;20.80;46.90;;;;;;5161326;28;20036;-79
2021/01/12 08:54:41;;;;;;;5.45;0.60;;;20.90;46.30;;;;;;5165169;28;20086;-79
2021/01/12 08:57:13;;;;;;;5.30;0.70;;;20.90;45.20;;;;;;5187102;28;20037;-78
2021/01/12 08:59:43;;;;;;;4.15;0.63;;;21.00;45.30;;;;;;5170355;28;20128;-78
2021/01/12 09:02:20;;;;;;;2.20;0.70;;;21.10;44.90;;;;;;5161230;28;20021;-80
2021/01/12 09:05:00;;;;;;;1.83;0.60;;;21.10;45.00;;;;;;5202846;28;20014;-78
2021/01/12 09:07:33;;;;;;;1.52;0.50;;;21.20;44.20;;;;;;5161373;28;20029;-80
2021/01/12 09:10:03;;;;;;;3.92;1.15;;;21.20;43.90;;;;;;5187507;28;20025;-80
2021/01/12 09:12:34;;;;;;;2.03;0.43;;;21.30;44.10;;;;;;5185144;28;20034;-80
2021/01/12 09:15:05;;;;;;;4.55;0.70;;;21.30;44.00;;;;;;5157970;28;20084;-80
2021/01/12 09:17:35;;;;;;;3.30;0.65;;;21.30;44.30;;;;;;5177438;28;20038;-78
2021/01/12 09:20:06;;;;;;;15.23;0.82;;;21.40;43.40;;;;;;5179061;28;20537;-80
2021/01/12 09:22:37;;;;;;;1.70;0.73;;;21.40;43.00;;;;;;5187726;28;20041;-80
2021/01/12 09:25:08;;;;;;;5.95;0.70;;;21.40;43.20;;;;;;5187625;28;20074;-79
2021/01/12 09:27:38;;;;;;;6.63;0.70;;;21.50;42.70;;;;;;5204015;28;20034;-79
2021/01/12 09:30:09;;;;;;;2.67;0.70;;;21.40;43.20;;;;;;5194159;28;20026;-80
2021/01/12 09:32:40;;;;;;;2.65;0.60;;;21.50;42.50;;;;;;5177762;28;20124;-78
2021/01/12 09:35:18;;;;;;;5.70;0.80;;;21.60;42.90;;;;;;5187499;28;20036;-78
2021/01/12 09:37:58;;;;;;;2.88;0.50;;;21.60;42.70;;;;;;5186799;28;20029;-79
2021/01/12 09:40:29;;;;;;;3.75;0.77;;;21.70;42.70;;;;;;5195373;28;20031;-80
2021/01/12 09:42:59;;;;;;;5.65;0.65;;;21.70;42.90;;;;;;5155163;28;20049;-78
2021/01/12 09:45:30;;;;;;;2.55;0.63;;;21.80;42.70;;;;;;5180379;28;20033;-79
2021/01/12 09:48:01;;;;;;;2.83;0.73;;;21.80;42.10;;;;;;5150090;28;20088;-79
2021/01/12 09:50:32;;;;;;;5.95;0.80;;;21.80;42.10;;;;;;5183032;28;20487;-79
2021/01/12 09:53:02;;;;;;;3.28;0.80;;;21.70;42.50;;;;;;5166136;28;20046;-79
2021/01/12 09:55:33;;;;;;;4.07;0.73;;;21.80;41.70;;;;;;5166924;28;20018;-79
2021/01/12 09:58:03;;;;;;;4.95;1.05;;;21.80;42.30;;;;;;5150684;28;20041;-79
2021/01/12 10:00:34;;;;;;;5.43;0.80;;;21.80;42.50;;;;;;5148595;28;20045;-79
2021/01/12 10:03:05;;;;;;;7.43;1.05;;;21.80;42.80;;;;;;5165371;28;20641;-78
2021/01/12 10:05:38;;;;;;;3.55;0.98;;;21.90;41.50;;;;;;5182595;28;20036;-77
2021/01/12 10:08:09;;;;;;;5.68;1.00;;;21.90;42.30;;;;;;5182426;28;20460;-77
2021/01/12 10:10:40;;;;;;;4.43;0.93;;;21.90;42.90;;;;;;5182603;28;20026;-78
2021/01/12 10:13:11;;;;;;;10.50;0.82;;;21.90;43.20;;;;;;5165943;28;20038;-79
2021/01/12 10:15:41;;;;;;;4.95;0.70;;;21.90;43.50;;;;;;5149854;28;20458;-77
2021/01/12 10:18:12;;;;;;;5.70;0.65;;;22.00;43.80;;;;;;5165936;28;20050;-77
2021/01/12 10:20:42;;;;;;;8.18;0.73;;;22.10;43.80;;;;;;5166816;28;20128;-78
2021/01/12 10:23:13;;;;;;;8.75;0.70;;;22.10;44.40;;;;;;5150162;28;20030;-79
2021/01/12 10:25:44;;;;;;;17.02;1.50;;;22.20;44.60;;;;;;5166718;28;20029;-77
2021/01/12 10:28:14;;;;;;;7.82;0.70;;;22.30;44.50;;;;;;5165852;28;20025;-77
2021/01/12 10:30:45;;;;;;;5.40;0.63;;;22.40;45.00;;;;;;5165974;28;20084;-78
2021/01/12 10:33:15;;;;;;;7.22;0.82;;;22.40;45.20;;;;;;5149016;28;20109;-77
2021/01/12 10:35:46;;;;;;;1.88;0.50;;;22.40;45.50;;;;;;5166204;28;20483;-78
2021/01/12 10:38:16;;;;;;;2.55;0.68;;;22.30;45.70;;;;;;5165483;28;20037;-77
2021/01/12 10:40:47;;;;;;;5.72;0.60;;;22.40;45.90;;;;;;5149983;28;20542;-77
2021/01/12 10:43:17;;;;;;;3.40;0.40;;;22.50;45.80;;;;;;5182712;28;20037;-77
2021/01/12 10:45:48;;;;;;;2.42;0.60;;;22.60;45.80;;;;;;5165988;28;20461;-76
2021/01/12 10:48:19;;;;;;;8.98;0.60;;;22.70;45.70;;;;;;5165585;28;20145;-77
2021/01/12 10:50:49;;;;;;;8.55;0.60;;;22.60;46.00;;;;;;5166102;28;20026;-77
2021/01/12 10:53:20;;;;;;;3.70;0.47;;;22.70;45.90;;;;;;5165434;28;20033;-77
2021/01/12 10:55:50;;;;;;;1.65;0.47;;;22.60;46.20;;;;;;5169219;28;20038;-77
2021/01/12 10:58:21;;;;;;;1.30;0.40;;;22.70;46.40;;;;;;5181830;28;20030;-79
2021/01/12 11:00:52;;;;;;;8.43;0.40;;;22.70;46.40;;;;;;5181784;28;20049;-77
2021/01/12 11:03:23;;;;;;;3.63;0.40;;;22.70;46.50;;;;;;5182818;28;20030;-77
2021/01/12 11:05:54;;;;;;;11.15;0.70;;;22.80;46.70;;;;;;5166108;28;20024;-77
2021/01/12 11:08:25;;;;;;;10.85;1.38;;;22.70;46.80;;;;;;5170330;28;20079;-76
2021/01/12 11:10:56;;;;;;;14.55;0.70;;;22.70;46.80;;;;;;5185805;28;20445;-76
2021/01/12 11:13:26;;;;;;;4.68;0.77;;;22.80;46.70;;;;;;5185650;28;20025;-76
2021/01/12 11:15:57;;;;;;;6.53;0.80;;;22.80;46.60;;;;;;5204028;28;20041;-78
2021/01/12 11:18:28;;;;;;;6.10;1.35;;;22.70;46.20;;;;;;5205224;28;20025;-77
2021/01/12 11:21:01;;;;;;;8.75;1.60;;;22.70;43.10;;;;;;5187892;28;20474;-78
2021/01/12 11:23:32;;;;;;;6.00;1.90;;;22.60;42.50;;;;;;5187639;28;20092;-78
2021/01/12 11:26:02;;;;;;;5.80;1.50;;;22.60;42.50;;;;;;5187976;28;20111;-77
2021/01/12 11:28:33;;;;;;;4.75;1.40;;;22.50;41.50;;;;;;5203349;28;20034;-78
2021/01/12 11:31:03;;;;;;;3.95;1.20;;;22.50;41.70;;;;;;5203867;28;20030;-76
2021/01/12 11:33:34;;;;;;;5.10;1.45;;;22.50;41.90;;;;;;5203897;28;20041;-77
2021/01/12 11:36:05;;;;;;;10.90;1.30;;;22.50;42.20;;;;;;5205063;28;20037;-78
2021/01/12 11:38:35;;;;;;;7.15;1.10;;;22.40;41.80;;;;;;5197125;28;20034;-79
2021/01/12 11:41:09;;;;;;;6.68;1.40;;;22.50;41.30;;;;;;5186417;28;20037;-80
2021/01/12 11:43:40;;;;;;;6.30;1.20;;;22.50;41.30;;;;;;5171120;28;20046;-79
2021/01/12 11:46:10;;;;;;;9.25;1.17;;;22.40;41.20;;;;;;5169693;28;20064;-79
2021/01/12 11:48:41;;;;;;;5.07;1.10;;;22.50;40.60;;;;;;5185069;28;20096;-79
2021/01/12 11:51:11;;;;;;;6.35;1.27;;;22.50;40.30;;;;;;5186083;28;20068;-77
2021/01/12 11:53:42;;;;;;;7.57;1.48;;;22.60;39.90;;;;;;5178434;28;20088;-78
2021/01/12 11:56:12;;;;;;;6.80;1.20;;;22.60;39.90;;;;;;5166521;28;20035;-79
2021/01/12 11:58:43;;;;;;;9.18;1.10;;;22.50;39.70;;;;;;5165448;28;20057;-80
2021/01/12 12:01:13;;;;;;;5.65;1.10;;;22.40;39.80;;;;;;5165716;28;20505;-79
2021/01/12 12:03:45;;;;;;;4.20;0.93;;;22.30;39.70;;;;;;5165264;28;20030;-78
2021/01/12 12:06:15;;;;;;;3.38;1.00;;;22.30;39.60;;;;;;5165492;28;20117;-78
2021/01/12 12:08:46;;;;;;;3.97;0.88;;;22.30;39.50;;;;;;5180103;28;20112;-78
2021/01/12 12:11:16;;;;;;;3.55;0.90;;;22.30;39.40;;;;;;5206685;28;20121;-78
2021/01/12 12:13:47;;;;;;;1.88;0.68;;;22.30;39.30;;;;;;5189672;28;20521;-78
2021/01/12 12:16:18;;;;;;;3.28;0.75;;;22.20;39.00;;;;;;5189054;28;20087;-78
2021/01/12 12:18:49;;;;;;;5.28;1.00;;;22.30;39.00;;;;;;5188707;28;20033;-79
2021/01/12 12:21:20;;;;;;;2.05;0.70;;;22.20;38.80;;;;;;5206386;28;20033;-80
2021/01/12 12:23:50;;;;;;;2.97;1.15;;;22.20;38.70;;;;;;5188994;28;20036;-78
2021/01/12 12:26:21;;;;;;;3.38;0.90;;;22.30;39.20;;;;;;5189027;28;20536;-79
2021/01/12 12:28:51;;;;;;;1.40;0.60;;;22.20;38.50;;;;;;5204326;28;20029;-78
2021/01/12 12:31:22;;;;;;;2.63;0.70;;;22.20;38.40;;;;;;5204992;28;20469;-78
2021/01/12 12:33:52;;;;;;;2.83;0.75;;;22.20;38.30;;;;;;5188755;28;20041;-78
2021/01/12 12:36:23;;;;;;;2.47;0.90;;;22.20;38.20;;;;;;5205271;28;20048;-78
2021/01/12 12:38:53;;;;;;;2.42;0.77;;;22.20;38.00;;;;;;5212622;28;20105;-77
2021/01/12 12:41:24;;;;;;;3.80;1.10;;;22.20;38.10;;;;;;5208135;28;20029;-77
2021/01/12 12:43:54;;;;;;;4.55;1.00;;;22.20;38.00;;;;;;5205243;28;20061;-76
2021/01/12 12:46:25;;;;;;;3.13;0.68;;;22.20;37.80;;;;;;5201410;28;20494;-76
2021/01/12 12:48:56;;;;;;;4.18;0.80;;;22.20;37.40;;;;;;5171028;28;20032;-79
2021/01/12 12:51:26;;;;;;;4.60;0.80;;;22.10;36.90;;;;;;5206206;28;20085;-77
2021/01/12 12:53:58;;;;;;;4.63;0.82;;;22.00;36.60;;;;;;5194132;28;20089;-78
2021/01/12 12:56:28;;;;;;;3.75;0.75;;;22.00;36.50;;;;;;5164665;28;20053;-80
2021/01/12 12:58:59;;;;;;;4.72;0.85;;;22.00;36.30;;;;;;5164638;28;20089;-79
2021/01/12 13:01:29;;;;;;;3.33;1.08;;;21.90;36.20;;;;;;5147322;28;20273;-80
2021/01/12 13:04:00;;;;;;;2.17;0.82;;;21.90;35.90;;;;;;5164588;28;20042;-77
2021/01/12 13:06:31;;;;;;;3.25;0.63;;;21.90;35.80;;;;;;5183553;28;20026;-77